createdAt,value
2019-02-04T00:02:24.138Z,10.32
2019-02-04T00:04:53.881Z,13.87
2019-02-04T00:07:24.602Z,7.07
2019-02-04T00:09:55.854Z,11.73
2019-02-04T00:12:26.568Z,9.37
2019-02-04T00:14:56.013Z,8.57
2019-02-04T00:17:25.432Z,9.63
2019-02-04T00:19:55.412Z,11.97
2019-02-04T00:22:24.961Z,9.10
2019-02-04T00:24:56.183Z,6.40
2019-02-04T00:27:25.998Z,10.67
2019-02-04T00:29:55.566Z,13.30
2019-02-04T00:32:24.968Z,8.45
2019-02-04T00:34:56.775Z,8.60
2019-02-04T00:37:26.251Z,9.40
2019-02-04T00:39:55.831Z,7.08
2019-02-04T00:42:25.343Z,11.37
2019-02-04T00:44:55.874Z,7.87
2019-02-04T00:47:26.767Z,9.50
2019-02-04T00:49:57.741Z,7.28
2019-02-04T00:52:28.458Z,11.07
2019-02-04T00:54:59.012Z,7.40
2019-02-04T00:57:28.798Z,9.67
2019-02-04T00:59:58.534Z,11.35
2019-02-04T01:02:29.387Z,10.50
2019-02-04T01:04:58.990Z,8.10
2019-02-04T01:07:28.563Z,8.68
2019-02-04T01:09:58.088Z,8.37
2019-02-04T01:12:27.697Z,6.23
2019-02-04T01:14:57.442Z,8.57
2019-02-04T01:17:26.888Z,6.40
2019-02-04T01:19:56.577Z,8.70
2019-02-04T01:22:26.294Z,6.33
2019-02-04T01:24:55.749Z,8.23
2019-02-04T01:27:25.387Z,9.30
2019-02-04T01:29:56.540Z,7.90
2019-02-04T01:32:26.007Z,8.25
2019-02-04T01:34:56.598Z,6.67
2019-02-04T01:37:28.266Z,5.93
2019-02-04T01:39:57.662Z,8.93
2019-02-04T01:42:29.091Z,10.93
2019-02-04T01:44:58.509Z,5.75
2019-02-04T01:47:30.743Z,9.20
2019-02-04T01:50:00.348Z,7.47
2019-02-04T01:52:29.768Z,6.30
2019-02-04T01:54:59.483Z,8.67
2019-02-04T01:57:29.199Z,9.17
2019-02-04T01:59:59.729Z,8.08
2019-02-04T02:02:29.132Z,10.17
2019-02-04T02:04:58.738Z,11.40
2019-02-04T02:07:28.571Z,8.67
2019-02-04T02:09:58.071Z,10.00
2019-02-04T02:12:29.218Z,9.10
2019-02-04T02:14:58.691Z,9.50
2019-02-04T02:17:29.149Z,12.47
2019-02-04T02:19:58.867Z,12.30
2019-02-04T02:22:28.318Z,10.73
2019-02-04T02:24:57.716Z,10.75
2019-02-04T02:27:28.415Z,10.20
2019-02-04T02:30:00.421Z,13.90
2019-02-04T02:32:31.724Z,10.35
2019-02-04T02:35:01.727Z,9.65
2019-02-04T02:37:31.125Z,14.95
2019-02-04T02:40:03.396Z,10.35
2019-02-04T02:42:34.311Z,14.33
2019-02-04T02:45:04.350Z,9.57
2019-02-04T02:47:38.296Z,9.83
2019-02-04T02:50:07.360Z,14.07
2019-02-04T02:52:36.761Z,12.13
2019-02-04T02:55:07.495Z,12.77
2019-02-04T02:57:37.220Z,12.63
2019-02-04T03:00:09.943Z,10.50
2019-02-04T03:02:39.384Z,9.77
2019-02-04T03:05:10.824Z,10.70
2019-02-04T03:07:40.290Z,11.20
2019-02-04T03:10:12.639Z,9.07
2019-02-04T03:12:42.196Z,9.63
2019-02-04T03:15:12.334Z,13.07
2019-02-04T03:17:51.360Z,9.60
2019-02-04T03:20:13.526Z,9.47
2019-02-04T03:22:42.949Z,10.13
2019-02-04T03:25:12.643Z,11.13
2019-02-04T03:27:42.737Z,10.78
2019-02-04T03:30:21.063Z,8.37
2019-02-04T03:32:52.033Z,12.33
2019-02-04T03:35:23.323Z,9.93
2019-02-04T03:37:54.649Z,8.60
2019-02-04T03:40:26.730Z,9.93
2019-02-04T03:42:56.673Z,12.80
2019-02-04T03:45:26.227Z,10.72
2019-02-04T03:48:04.473Z,11.00
2019-02-04T03:50:27.542Z,11.87
2019-02-04T03:52:56.976Z,10.40
2019-02-04T03:55:26.608Z,14.93
2019-02-04T03:57:56.266Z,10.03
2019-02-04T04:00:28.119Z,13.62
2019-02-04T04:02:57.665Z,10.28
2019-02-04T04:05:28.789Z,10.95
2019-02-04T04:08:00.010Z,8.47
2019-02-04T04:10:30.912Z,10.60
2019-02-04T04:13:01.501Z,12.77
2019-02-04T04:15:30.891Z,10.33
2019-02-04T04:18:00.565Z,8.72
2019-02-04T04:20:30.422Z,10.88
2019-02-04T04:22:59.904Z,10.83
2019-02-04T04:25:32.003Z,10.35
2019-02-04T04:28:01.636Z,13.23
2019-02-04T04:30:31.077Z,13.30
2019-02-04T04:33:00.479Z,10.27
2019-02-04T04:35:30.035Z,12.30
2019-02-04T04:38:00.918Z,12.60
2019-02-04T04:40:30.321Z,15.73
2019-02-04T04:43:01.045Z,10.10
2019-02-04T04:45:34.364Z,11.90
2019-02-04T04:48:04.865Z,13.83
2019-02-04T04:50:34.310Z,11.67
2019-02-04T04:53:03.792Z,11.10
2019-02-04T04:55:34.231Z,8.33
2019-02-04T04:58:03.908Z,11.65
2019-02-04T05:00:33.618Z,10.97
2019-02-04T05:03:04.170Z,13.87
2019-02-04T05:05:34.796Z,9.27
2019-02-04T05:08:05.347Z,9.40
2019-02-04T05:10:34.820Z,9.50
2019-02-04T05:13:05.053Z,12.80
2019-02-04T05:15:34.743Z,10.57
2019-02-04T05:18:04.143Z,11.20
2019-02-04T05:20:33.796Z,11.77
2019-02-04T05:23:03.247Z,9.57
2019-02-04T05:25:34.472Z,10.88
2019-02-04T05:28:03.982Z,10.67
2019-02-04T05:30:33.408Z,8.47
2019-02-04T05:33:02.827Z,9.83
2019-02-04T05:35:33.922Z,9.68
2019-02-04T05:38:03.364Z,12.57
2019-02-04T05:40:33.074Z,10.20
2019-02-04T05:43:02.610Z,11.35
2019-02-04T05:45:33.003Z,9.83
2019-02-04T05:48:02.426Z,8.48
2019-02-04T05:50:32.314Z,11.88
2019-02-04T05:53:01.730Z,9.28
2019-02-04T05:55:31.190Z,8.03
2019-02-04T05:58:00.879Z,8.80
2019-02-04T06:00:35.504Z,9.73
2019-02-04T06:03:07.289Z,7.00
2019-02-04T06:05:38.914Z,9.50
2019-02-04T06:08:08.367Z,11.63
2019-02-04T06:10:38.174Z,12.57
2019-02-04T06:13:08.017Z,8.90
2019-02-04T06:15:37.644Z,9.30
2019-02-04T06:18:07.133Z,12.50
2019-02-04T06:20:37.295Z,7.50
2019-02-04T06:23:09.340Z,7.80
2019-02-04T06:25:39.014Z,8.93
2019-02-04T06:28:09.964Z,12.63
2019-02-04T06:30:39.394Z,10.17
2019-02-04T06:33:09.077Z,9.73
2019-02-04T06:35:38.928Z,10.50
2019-02-04T06:38:09.441Z,10.47
2019-02-04T06:40:38.886Z,10.50
2019-02-04T06:43:09.451Z,10.93
2019-02-04T06:45:38.855Z,10.40
2019-02-04T06:48:08.682Z,8.37
2019-02-04T06:50:38.524Z,9.10
2019-02-04T06:53:08.051Z,7.53
2019-02-04T06:55:41.326Z,8.90
2019-02-04T06:58:11.041Z,8.38
2019-02-04T07:00:40.433Z,9.13
2019-02-04T07:03:09.936Z,11.13
2019-02-04T07:05:44.007Z,9.20
2019-02-04T07:08:12.078Z,7.23
2019-02-04T07:10:43.061Z,9.90
2019-02-04T07:13:13.822Z,11.53
2019-02-04T07:15:45.065Z,10.83
2019-02-04T07:18:14.910Z,9.03
2019-02-04T07:20:45.366Z,9.83
2019-02-04T07:23:14.966Z,9.40
2019-02-04T07:25:46.748Z,7.90
2019-02-04T07:28:16.718Z,10.03
2019-02-04T07:30:46.167Z,11.43
2019-02-04T07:33:16.863Z,8.60
2019-02-04T07:35:46.667Z,11.27
2019-02-04T07:38:16.115Z,9.53
2019-02-04T07:40:45.586Z,12.20
2019-02-04T07:43:15.599Z,11.33
2019-02-04T07:45:46.054Z,11.87
2019-02-04T07:48:16.617Z,10.40
2019-02-04T07:50:46.506Z,11.77
2019-02-04T07:53:17.728Z,10.57
2019-02-04T07:55:48.282Z,9.17
2019-02-04T07:58:18.362Z,10.20
2019-02-04T08:00:48.226Z,9.25
2019-02-04T08:03:17.688Z,11.70
2019-02-04T08:05:47.187Z,12.10
2019-02-04T08:08:18.429Z,12.97
2019-02-04T08:10:48.097Z,13.13
2019-02-04T08:13:17.645Z,13.50
2019-02-04T08:15:47.082Z,12.20
2019-02-04T08:18:16.492Z,20.93
2019-02-04T08:20:46.221Z,16.07
2019-02-04T08:23:15.712Z,16.87
2019-02-04T08:25:45.176Z,16.47
2019-02-04T08:28:15.133Z,12.43
2019-02-04T08:30:46.306Z,12.90
2019-02-04T08:33:15.729Z,15.33
2019-02-04T08:35:45.181Z,14.07
2019-02-04T08:38:15.060Z,16.85
2019-02-04T08:40:46.164Z,14.98
2019-02-04T08:43:15.874Z,16.70
2019-02-04T08:45:45.368Z,16.80
2019-02-04T08:48:17.331Z,15.80
2019-02-04T08:50:48.716Z,13.90
2019-02-04T08:53:19.450Z,15.00
2019-02-04T08:55:48.953Z,16.60
2019-02-04T08:58:18.699Z,15.07
2019-02-04T09:00:48.668Z,20.93
2019-02-04T09:03:19.987Z,20.12
2019-02-04T09:05:51.130Z,16.23
2019-02-04T09:08:22.077Z,18.27
2019-02-04T09:10:51.601Z,18.33
2019-02-04T09:13:21.262Z,18.93
2019-02-04T09:15:50.765Z,18.20
2019-02-04T09:18:25.049Z,17.17
2019-02-04T09:20:56.232Z,18.82
2019-02-04T09:23:27.501Z,17.52
2019-02-04T09:25:56.989Z,19.42
2019-02-04T09:28:29.958Z,19.77
2019-02-04T09:30:59.119Z,20.95
2019-02-04T09:33:30.135Z,22.42
2019-02-04T09:35:59.725Z,19.40
2019-02-04T09:38:29.234Z,20.52
2019-02-04T09:40:58.738Z,21.62
2019-02-04T09:43:28.352Z,18.15
2019-02-04T09:45:57.814Z,19.53
2019-02-04T09:48:29.011Z,22.47
2019-02-04T09:51:02.016Z,24.32
2019-02-04T09:53:32.544Z,23.60
2019-02-04T09:56:02.707Z,21.25
2019-02-04T09:58:32.475Z,20.37
2019-02-04T10:01:04.257Z,21.70
2019-02-04T10:03:33.606Z,24.13
2019-02-04T10:06:03.291Z,21.62
2019-02-04T10:08:36.306Z,20.73
2019-02-04T10:11:05.849Z,21.77
2019-02-04T10:13:35.473Z,21.77
2019-02-04T10:16:05.302Z,19.23
2019-02-04T10:18:37.884Z,21.07
2019-02-04T10:21:08.831Z,20.27
2019-02-04T10:23:38.260Z,23.43
2019-02-04T10:26:07.680Z,19.23
2019-02-04T10:28:37.428Z,21.03
2019-02-04T10:31:07.125Z,20.73
2019-02-04T10:33:38.077Z,21.33
2019-02-04T10:36:08.195Z,21.13
2019-02-04T10:38:37.618Z,23.50
2019-02-04T10:41:07.320Z,21.33
2019-02-04T10:43:39.802Z,19.87
2019-02-04T10:46:09.497Z,19.27
2019-02-04T10:48:38.946Z,18.57
2019-02-04T10:51:09.664Z,20.60
2019-02-04T10:53:39.214Z,21.27
2019-02-04T10:56:09.271Z,18.17
2019-02-04T10:58:39.086Z,20.73
2019-02-04T11:01:09.337Z,18.80
2019-02-04T11:03:40.038Z,19.00
2019-02-04T11:06:09.808Z,19.10
2019-02-04T11:08:39.719Z,19.10
2019-02-04T11:11:09.409Z,17.10
2019-02-04T11:13:39.048Z,17.30
2019-02-04T11:16:08.741Z,21.27
2019-02-04T11:18:39.283Z,16.83
2019-02-04T11:21:08.936Z,19.60
2019-02-04T11:23:38.350Z,20.63
2019-02-04T11:26:08.107Z,20.13
2019-02-04T11:28:37.721Z,21.97
2019-02-04T11:31:10.344Z,21.23
2019-02-04T11:33:41.653Z,19.17
2019-02-04T11:36:11.552Z,20.53
2019-02-04T11:38:42.771Z,20.23
2019-02-04T11:41:12.224Z,18.87
2019-02-04T11:43:44.670Z,20.47
2019-02-04T11:46:14.129Z,18.23
2019-02-04T11:48:45.434Z,20.03
2019-02-04T11:51:15.700Z,21.03
2019-02-04T11:53:59.424Z,18.60
2019-02-04T11:56:32.958Z,18.35
2019-02-04T11:59:02.564Z,17.87
2019-02-04T12:01:36.484Z,15.80
2019-02-04T12:04:08.544Z,17.87
2019-02-04T12:06:40.009Z,17.23
2019-02-04T12:09:10.789Z,15.70
2019-02-04T12:11:42.138Z,19.93
2019-02-04T12:14:13.268Z,17.07
2019-02-04T12:16:44.428Z,16.83
2019-02-04T12:19:19.459Z,15.60
2019-02-04T12:21:51.112Z,16.83
2019-02-04T12:24:32.311Z,16.73
2019-02-04T12:27:03.252Z,18.02
2019-02-04T12:29:37.764Z,20.62
2019-02-04T12:32:09.792Z,16.73
2019-02-04T12:34:42.567Z,15.78
2019-02-04T12:37:12.860Z,15.53
2019-02-04T12:39:42.420Z,15.80
2019-02-04T12:42:15.835Z,14.60
2019-02-04T12:44:49.220Z,15.17
2019-02-04T12:47:21.527Z,15.27
2019-02-04T12:49:55.332Z,17.20
2019-02-04T12:52:25.470Z,17.67
2019-02-04T12:54:55.337Z,14.27
2019-02-04T12:57:25.180Z,18.73
2019-02-04T13:00:00.052Z,23.27
2019-02-04T13:02:41.020Z,13.20
2019-02-04T13:05:22.421Z,12.33
2019-02-04T13:08:05.599Z,15.63
2019-02-04T13:10:40.377Z,12.03
2019-02-04T13:13:14.231Z,15.18
2019-02-04T13:15:44.744Z,11.80
2019-02-04T13:18:16.166Z,15.33
2019-02-04T13:20:46.590Z,15.35
2019-02-04T13:23:17.923Z,14.37
2019-02-04T13:25:57.398Z,11.80
2019-02-04T13:28:26.158Z,13.83
2019-02-04T13:30:56.925Z,12.17
2019-02-04T13:33:28.488Z,13.33
2019-02-04T13:35:58.591Z,18.47
2019-02-04T13:38:28.050Z,25.23
2019-02-04T13:41:08.131Z,16.20
2019-02-04T13:43:37.187Z,13.22
2019-02-04T13:46:20.284Z,10.07
2019-02-04T13:48:50.345Z,10.55
2019-02-04T13:51:19.887Z,13.93
2019-02-04T13:53:51.521Z,12.97
2019-02-04T13:56:21.345Z,12.50
2019-02-04T13:58:52.269Z,13.67
2019-02-04T14:01:25.383Z,13.17
2019-02-04T14:03:57.323Z,12.53
2019-02-04T14:06:27.978Z,9.70
2019-02-04T14:08:59.671Z,12.20
2019-02-04T14:11:31.621Z,8.73
2019-02-04T14:14:04.191Z,9.47
2019-02-04T14:16:33.896Z,11.63
2019-02-04T14:19:10.686Z,10.00
2019-02-04T14:21:41.657Z,11.57
2019-02-04T14:24:14.139Z,10.50
2019-02-04T14:26:49.063Z,8.80
2019-02-04T14:29:22.311Z,13.37
2019-02-04T14:31:51.993Z,15.30
2019-02-04T14:34:24.453Z,9.43
2019-02-04T14:36:55.977Z,10.70
2019-02-04T14:39:26.297Z,13.53
2019-02-04T14:41:55.748Z,10.70
2019-02-04T14:44:34.261Z,10.00
2019-02-04T14:47:13.084Z,10.80
2019-02-04T14:50:16.549Z,9.95
2019-02-04T14:53:16.055Z,9.80
2019-02-04T14:56:09.744Z,10.73
2019-02-04T14:59:23.569Z,20.27
2019-02-04T15:02:37.310Z,8.83
2019-02-04T15:05:55.464Z,12.68
2019-02-04T15:09:14.718Z,11.13
2019-02-04T15:12:20.963Z,11.20
2019-02-04T15:15:30.356Z,10.33
2019-02-04T15:18:30.181Z,9.80
2019-02-04T15:21:36.835Z,8.67
2019-02-04T15:24:30.674Z,7.70
2019-02-04T15:27:41.187Z,8.30
2019-02-04T15:30:51.578Z,6.47
2019-02-04T15:34:02.416Z,6.87
2019-02-04T15:37:16.565Z,7.07
2019-02-04T15:40:27.524Z,7.13
2019-02-04T15:43:20.920Z,8.13
2019-02-04T15:46:16.888Z,6.57
2019-02-04T15:49:35.544Z,8.33
2019-02-04T15:52:05.926Z,8.03
2019-02-04T15:54:37.343Z,9.80
2019-02-04T15:57:07.125Z,7.15
2019-02-04T15:59:37.007Z,8.43
2019-02-04T16:02:08.489Z,8.17
2019-02-04T16:04:38.150Z,7.33
2019-02-04T16:07:10.412Z,7.40
2019-02-04T16:09:40.979Z,10.57
2019-02-04T16:12:10.841Z,7.22
2019-02-04T16:14:41.468Z,7.77
2019-02-04T16:17:12.508Z,8.63
2019-02-04T16:19:42.317Z,9.80
2019-02-04T16:22:12.058Z,7.80
2019-02-04T16:24:42.673Z,8.60
2019-02-04T16:27:13.716Z,9.93
2019-02-04T16:29:43.288Z,8.07
2019-02-04T16:32:13.974Z,8.88
2019-02-04T16:34:44.889Z,8.03
2019-02-04T16:37:14.402Z,8.17
2019-02-04T16:39:45.362Z,8.50
2019-02-04T16:42:15.501Z,8.95
2019-02-04T16:44:44.917Z,9.03
2019-02-04T16:47:14.369Z,8.80
2019-02-04T16:49:44.094Z,9.58
2019-02-04T16:52:13.525Z,10.72
2019-02-04T16:54:43.324Z,10.90
2019-02-04T16:57:12.838Z,9.33
2019-02-04T16:59:42.266Z,10.10
2019-02-04T17:02:11.710Z,10.07
2019-02-04T17:04:41.215Z,8.70
2019-02-04T17:07:10.829Z,9.08
2019-02-04T17:09:40.509Z,7.80
2019-02-04T17:12:11.096Z,8.80
2019-02-04T17:14:41.852Z,10.78
2019-02-04T17:17:11.277Z,12.00
2019-02-04T17:19:41.011Z,9.20
2019-02-04T17:22:13.906Z,9.18
2019-02-04T17:24:43.461Z,11.12
2019-02-04T17:27:13.497Z,9.93
2019-02-04T17:29:46.891Z,7.12
2019-02-04T17:32:16.327Z,8.68
2019-02-04T17:34:45.832Z,10.57
2019-02-04T17:37:19.345Z,9.10
2019-02-04T17:39:48.713Z,10.83
2019-02-04T17:42:18.424Z,10.23
2019-02-04T17:44:47.879Z,10.75
2019-02-04T17:47:17.368Z,12.17
2019-02-04T17:49:47.046Z,12.23
2019-02-04T17:52:19.873Z,9.67
2019-02-04T17:54:49.502Z,11.63
2019-02-04T17:57:19.319Z,12.53
2019-02-04T17:59:49.263Z,13.07
2019-02-04T18:02:21.443Z,12.70
2019-02-04T18:04:51.309Z,14.00
2019-02-04T18:07:21.287Z,14.17
2019-02-04T18:09:51.939Z,11.53
2019-02-04T18:12:23.404Z,15.90
2019-02-04T18:14:55.547Z,14.97
2019-02-04T18:17:29.232Z,12.17
2019-02-04T18:19:58.989Z,15.20
2019-02-04T18:22:28.605Z,11.23
2019-02-04T18:24:59.374Z,13.23
2019-02-04T18:27:32.343Z,15.30
2019-02-04T18:30:02.222Z,15.67
2019-02-04T18:32:36.008Z,14.13
2019-02-04T18:35:06.751Z,10.88
2019-02-04T18:37:36.367Z,10.50
2019-02-04T18:40:07.779Z,13.10
2019-02-04T18:42:39.249Z,10.43
2019-02-04T18:45:15.847Z,13.13
2019-02-04T18:47:49.198Z,18.67
2019-02-04T18:50:19.987Z,11.30
2019-02-04T18:52:50.806Z,11.23
2019-02-04T18:55:22.972Z,17.77
2019-02-04T18:57:54.446Z,13.30
2019-02-04T19:00:25.855Z,11.57
2019-02-04T19:02:55.794Z,12.67
2019-02-04T19:05:27.011Z,12.17
2019-02-04T19:07:59.526Z,12.07
2019-02-04T19:10:30.550Z,10.57
2019-02-04T19:13:00.363Z,12.67
2019-02-04T19:15:30.969Z,9.67
2019-02-04T19:18:04.216Z,11.73
2019-02-04T19:20:34.800Z,15.17
2019-02-04T19:23:05.570Z,12.53
2019-02-04T19:25:35.042Z,11.53
2019-02-04T19:28:08.760Z,11.27
2019-02-04T19:30:46.799Z,13.35
2019-02-04T19:33:17.740Z,9.00
2019-02-04T19:35:49.178Z,14.90
2019-02-04T19:38:19.636Z,10.07
2019-02-04T19:40:50.164Z,9.23
2019-02-04T19:43:20.748Z,14.23
2019-02-04T19:45:51.128Z,11.77
2019-02-04T19:48:23.388Z,14.87
2019-02-04T19:50:53.346Z,9.27
2019-02-04T19:53:28.501Z,9.93
2019-02-04T19:56:02.110Z,10.10
2019-02-04T19:58:31.906Z,12.37
2019-02-04T20:01:01.358Z,12.43
2019-02-04T20:03:32.777Z,12.95
2019-02-04T20:06:02.354Z,12.23
2019-02-04T20:08:32.399Z,15.80
2019-02-04T20:11:06.472Z,9.13
2019-02-04T20:13:38.022Z,15.10
2019-02-04T20:16:09.156Z,11.43
2019-02-04T20:18:39.041Z,8.30
2019-02-04T20:21:08.684Z,8.90
2019-02-04T20:23:38.599Z,10.17
2019-02-04T20:26:09.970Z,10.73
2019-02-04T20:28:39.543Z,8.87
2019-02-04T20:31:10.948Z,8.90
2019-02-04T20:33:40.651Z,10.80
2019-02-04T20:36:12.677Z,7.87
2019-02-04T20:38:42.175Z,7.90
2019-02-04T20:41:11.838Z,11.30
2019-02-04T20:43:43.077Z,7.83
2019-02-04T20:46:12.577Z,9.10
2019-02-04T20:48:43.223Z,9.33
2019-02-04T20:51:12.708Z,10.17
2019-02-04T20:53:42.371Z,8.03
2019-02-04T20:56:12.293Z,8.95
2019-02-04T20:58:43.873Z,10.10
2019-02-04T21:01:15.162Z,10.00
2019-02-04T21:03:46.315Z,7.12
2019-02-04T21:06:15.735Z,10.63
2019-02-04T21:08:45.281Z,11.00
2019-02-04T21:11:14.934Z,11.03
2019-02-04T21:13:45.433Z,10.33
2019-02-04T21:16:18.477Z,9.43
2019-02-04T21:18:48.198Z,8.50
2019-02-04T21:21:18.766Z,10.50
2019-02-04T21:23:48.191Z,7.55
2019-02-04T21:26:19.060Z,13.10
2019-02-04T21:28:50.289Z,8.23
2019-02-04T21:31:20.027Z,9.20
2019-02-04T21:33:49.769Z,7.63
2019-02-04T21:36:19.195Z,9.13
2019-02-04T21:38:49.100Z,7.77
2019-02-04T21:41:18.725Z,10.18
2019-02-04T21:43:49.482Z,7.30
2019-02-04T21:46:20.564Z,8.70
2019-02-04T21:48:50.607Z,11.93
2019-02-04T21:51:20.261Z,11.43
2019-02-04T21:53:49.766Z,10.57
2019-02-04T21:56:22.435Z,9.70
2019-02-04T21:58:51.858Z,8.90
2019-02-04T22:01:21.564Z,11.33
2019-02-04T22:03:53.253Z,10.27
2019-02-04T22:06:22.754Z,10.23
2019-02-04T22:08:52.148Z,8.73
2019-02-04T22:11:21.898Z,10.57
2019-02-04T22:13:52.389Z,9.33
2019-02-04T22:16:22.867Z,10.27
2019-02-04T22:18:52.972Z,10.00
2019-02-04T22:21:23.405Z,11.10
2019-02-04T22:23:54.677Z,10.47
2019-02-04T22:26:25.484Z,9.87
2019-02-04T22:28:56.000Z,10.70
2019-02-04T22:31:27.290Z,10.07
2019-02-04T22:33:57.397Z,10.80
2019-02-04T22:36:29.704Z,8.67
2019-02-04T22:38:59.138Z,8.97
2019-02-04T22:41:30.360Z,9.27
2019-02-04T22:43:59.757Z,10.77
2019-02-04T22:46:29.389Z,9.70
2019-02-04T22:49:00.684Z,11.37
2019-02-04T22:51:31.156Z,10.47
2019-02-04T22:54:01.582Z,9.98
2019-02-04T22:56:33.611Z,10.45
2019-02-04T22:59:03.215Z,11.83
2019-02-04T23:01:55.552Z,13.90
2019-02-04T23:04:25.467Z,12.80
2019-02-04T23:06:56.822Z,10.87
2019-02-04T23:09:26.432Z,11.67
2019-02-04T23:11:56.915Z,11.43
2019-02-04T23:14:26.406Z,11.87
2019-02-04T23:16:58.414Z,11.10
2019-02-04T23:19:29.795Z,11.63
2019-02-04T23:21:59.301Z,10.70
2019-02-04T23:24:29.016Z,11.03
2019-02-04T23:26:58.456Z,11.50
2019-02-04T23:29:29.054Z,13.97
2019-02-04T23:31:58.907Z,12.20
2019-02-04T23:34:28.336Z,10.67
2019-02-04T23:36:59.244Z,11.43
2019-02-04T23:39:28.853Z,11.87
2019-02-04T23:41:58.500Z,11.60
2019-02-04T23:44:29.213Z,12.53
2019-02-04T23:46:58.926Z,14.63
2019-02-04T23:49:28.487Z,13.57
2019-02-04T23:51:57.969Z,12.20
2019-02-04T23:54:27.855Z,11.67
2019-02-04T23:56:57.264Z,12.17
2019-02-04T23:59:27.230Z,12.20
